Foresthill, California
Current Conditions -  °F | °C
As of 9:15 AM on Friday 19 Dec 2014 (Local Time) from KAUN Reporting Station
Overcast Overcast  
Wind Chill: 48°   Ceiling: 1900
Heat Index: 48°   Visibility: 2mi
Dew Point: 45°   Wind: 3mph
Humidity: 87%   Direction: 230°SW
Pressure: 30.18"   Gusts: NA
Location:  39.02°N, 120.82°W
Report Text: KAUN 191715Z AUTO 23003KT 2SM BKN019 OVC026 09/07 A3018 RMK AO1 P0006
Loading
Personal Weather Stations






























Interactive Weather Map New forecast layout! Learn more

10-Day Weather Forecast

Advertisements
Track Severe Weather on mobile